Time;durP1;ratioP1;P1;durP2;ratioP2;P2;SDS_P1;SDS_P2;PMS_P1;PMS_P2;Temp;Humidity;BMP_temperature;BMP_pressure;BME280_temperature;BME280_humidity;BME280_pressure;Samples;Min_cycle;Max_cycle;Signal;HPM_P1;HPM_P2
2023/08/09 00:02:20;;;;;;;0.00;0.00;;;15.20;99.90;;;;;;5012773;28;20047;-60
2023/08/09 00:04:45;;;;;;;0.00;0.00;;;15.10;99.90;;;;;;5013384;28;20046;-60
2023/08/09 00:07:11;;;;;;;0.00;0.00;;;15.00;99.90;;;;;;5016470;28;20040;-59
2023/08/09 00:09:37;;;;;;;0.00;0.00;;;14.90;99.90;;;;;;5001116;28;20022;-60
2023/08/09 00:12:03;;;;;;;0.00;0.00;;;14.80;99.90;;;;;;5014934;28;20033;-59
2023/08/09 00:14:29;;;;;;;0.00;0.00;;;14.70;99.90;;;;;;5004355;28;20028;-60
2023/08/09 00:16:54;;;;;;;0.00;0.00;;;14.60;99.90;;;;;;5026468;28;20233;-60
2023/08/09 00:19:20;;;;;;;0.00;0.00;;;14.50;99.90;;;;;;5021084;28;20081;-60
2023/08/09 00:21:46;;;;;;;0.00;0.00;;;14.60;99.90;;;;;;5006073;28;20068;-60
2023/08/09 00:24:12;;;;;;;0.00;0.00;;;14.70;99.90;;;;;;5011828;28;20034;-60
2023/08/09 00:26:37;;;;;;;0.00;0.00;;;14.70;99.90;;;;;;5004442;28;20124;-59
2023/08/09 00:29:03;;;;;;;0.00;0.00;;;14.80;99.90;;;;;;5008279;28;20072;-60
2023/08/09 00:31:29;;;;;;;0.00;0.00;;;14.70;99.90;;;;;;5007813;28;20502;-60
2023/08/09 00:33:54;;;;;;;0.00;0.00;;;14.60;99.90;;;;;;4999858;28;20112;-60
2023/08/09 00:36:20;;;;;;;0.00;0.00;;;14.70;99.90;;;;;;5001025;28;20561;-60
2023/08/09 00:38:46;;;;;;;0.00;0.00;;;14.80;99.90;;;;;;5006176;28;20042;-60
2023/08/09 00:41:12;;;;;;;0.00;0.00;;;14.80;99.90;;;;;;5027765;28;20065;-60
2023/08/09 00:43:37;;;;;;;0.00;0.00;;;14.70;99.90;;;;;;5029543;28;20033;-60
2023/08/09 00:46:04;;;;;;;0.00;0.00;;;14.80;99.90;;;;;;5015829;28;20092;-60
2023/08/09 00:48:30;;;;;;;0.00;0.00;;;15.00;99.90;;;;;;5020035;28;20472;-60
2023/08/09 00:50:55;;;;;;;0.00;0.00;;;14.80;99.90;;;;;;5031098;28;20116;-59
2023/08/09 00:53:21;;;;;;;0.00;0.00;;;14.90;99.90;;;;;;5033217;28;20118;-58
2023/08/09 00:55:47;;;;;;;0.00;0.00;;;14.90;99.90;;;;;;5022840;28;20068;-59
2023/08/09 00:58:13;;;;;;;0.00;0.00;;;14.90;99.90;;;;;;5002586;28;20133;-58
2023/08/09 01:00:39;;;;;;;0.00;0.00;;;14.80;99.90;;;;;;5015030;28;20418;-59
2023/08/09 01:03:04;;;;;;;0.00;0.00;;;14.80;99.90;;;;;;5009093;28;20116;-59
2023/08/09 01:05:53;;;;;;;0.00;0.00;;;14.90;99.90;;;;;;5007365;28;20041;-60
2023/08/09 01:08:27;;;;;;;0.00;0.00;;;14.90;99.90;;;;;;5011437;28;20124;-59
2023/08/09 01:11:08;;;;;;;0.00;0.00;;;14.90;99.90;;;;;;4999100;28;20037;-59
2023/08/09 01:13:37;;;;;;;0.00;0.00;;;14.90;99.90;;;;;;5000152;28;20022;-58
2023/08/09 01:16:05;;;;;;;0.00;0.00;;;15.00;99.90;;;;;;4995374;28;20092;-59
2023/08/09 01:18:31;;;;;;;0.00;0.00;;;15.00;99.90;;;;;;5000916;28;20136;-58
2023/08/09 01:21:00;;;;;;;0.00;0.00;;;14.90;99.90;;;;;;5011606;28;20489;-59
2023/08/09 01:23:38;;;;;;;0.00;0.00;;;14.90;99.90;;;;;;5003166;28;20591;-59
2023/08/09 01:26:04;;;;;;;0.00;0.00;;;15.00;99.90;;;;;;5024018;28;20037;-59
2023/08/09 01:28:31;;;;;;;0.00;0.00;;;15.00;99.90;;;;;;5018606;28;20524;-59
2023/08/09 01:30:57;;;;;;;0.00;0.00;;;14.90;99.90;;;;;;5004794;28;20108;-59
2023/08/09 01:33:24;;;;;;;0.00;0.00;;;15.00;99.90;;;;;;5005174;28;20678;-58
2023/08/09 01:35:59;;;;;;;0.00;0.00;;;15.00;99.90;;;;;;5009006;28;20041;-58
2023/08/09 01:38:34;;;;;;;0.00;0.00;;;15.00;99.90;;;;;;5005056;28;20132;-58
2023/08/09 01:41:00;;;;;;;0.00;0.00;;;15.10;99.90;;;;;;5003234;28;20030;-59
2023/08/09 01:43:26;;;;;;;0.00;0.00;;;15.00;99.90;;;;;;5028643;28;20041;-59
2023/08/09 01:45:53;;;;;;;0.00;0.00;;;15.10;99.90;;;;;;5028093;28;20481;-59
2023/08/09 01:48:18;;;;;;;0.00;0.00;;;15.20;99.90;;;;;;5011100;28;20060;-59
2023/08/09 01:50:45;;;;;;;0.00;0.00;;;15.10;99.90;;;;;;5020483;28;20481;-59
2023/08/09 01:53:11;;;;;;;0.00;0.00;;;15.30;99.90;;;;;;5023494;28;20032;-58
2023/08/09 01:55:38;;;;;;;0.00;0.00;;;15.40;99.90;;;;;;5015103;28;20034;-59
2023/08/09 01:58:04;;;;;;;0.00;0.00;;;15.40;99.90;;;;;;5022921;28;20038;-59
2023/08/09 02:00:30;;;;;;;0.00;0.00;;;15.30;99.90;;;;;;5029322;28;20044;-58
2023/08/09 02:02:55;;;;;;;0.00;0.00;;;15.30;99.90;;;;;;5028174;28;20028;-58
2023/08/09 02:05:21;;;;;;;0.00;0.00;;;15.30;99.90;;;;;;5006991;28;20034;-58
2023/08/09 02:07:47;;;;;;;0.00;0.00;;;15.30;99.90;;;;;;5010776;28;20037;-58
2023/08/09 02:10:13;;;;;;;0.00;0.00;;;15.10;99.90;;;;;;5006978;28;20120;-59
2023/08/09 02:12:39;;;;;;;0.00;0.00;;;15.10;99.90;;;;;;5008706;28;20134;-58
2023/08/09 02:15:06;;;;;;;0.00;0.00;;;15.10;99.90;;;;;;5014662;28;20513;-58
2023/08/09 02:17:32;;;;;;;0.00;0.00;;;14.90;99.90;;;;;;5008259;28;20084;-59
2023/08/09 02:19:59;;;;;;;0.00;0.00;;;14.90;99.90;;;;;;5007208;28;20052;-59
2023/08/09 02:22:25;;;;;;;0.00;0.00;;;14.80;99.90;;;;;;5009622;28;20058;-60
2023/08/09 02:24:51;;;;;;;0.00;0.00;;;14.70;99.90;;;;;;5007162;28;20030;-58
2023/08/09 02:27:17;;;;;;;0.00;0.00;;;14.70;99.90;;;;;;5006821;28;20038;-60
2023/08/09 02:29:43;;;;;;;0.00;0.00;;;14.80;99.90;;;;;;5005096;28;20065;-60
2023/08/09 02:32:09;;;;;;;0.00;0.00;;;14.90;99.90;;;;;;5015708;28;20042;-60
2023/08/09 02:34:34;;;;;;;0.00;0.00;;;15.00;99.90;;;;;;5026055;28;20033;-60
2023/08/09 02:37:00;;;;;;;0.00;0.00;;;15.10;99.90;;;;;;5032487;28;20496;-60
2023/08/09 02:39:26;;;;;;;0.00;0.00;;;15.30;99.90;;;;;;5004639;28;20077;-60
2023/08/09 02:41:51;;;;;;;0.00;0.00;;;15.30;99.90;;;;;;5008898;28;20049;-59
2023/08/09 02:44:17;;;;;;;0.00;0.00;;;15.30;99.90;;;;;;5008438;28;20030;-60
2023/08/09 02:46:43;;;;;;;0.00;0.00;;;15.40;99.90;;;;;;5022548;28;20037;-59
2023/08/09 02:49:09;;;;;;;0.00;0.00;;;15.60;99.90;;;;;;5006197;28;20044;-60
2023/08/09 02:51:34;;;;;;;0.00;0.00;;;15.50;99.90;;;;;;5006872;28;20060;-59
2023/08/09 02:54:05;;;;;;;0.00;0.00;;;15.40;99.90;;;;;;5020421;28;20033;-60
2023/08/09 02:56:32;;;;;;;0.00;0.00;;;15.40;99.90;;;;;;5006585;28;20053;-60
2023/08/09 02:58:58;;;;;;;0.00;0.00;;;15.20;99.90;;;;;;5006889;28;20120;-59
2023/08/09 03:01:25;;;;;;;0.00;0.00;;;15.20;99.90;;;;;;5036876;28;20045;-60
2023/08/09 03:03:52;;;;;;;0.00;0.00;;;15.20;99.90;;;;;;5008886;28;20044;-60
2023/08/09 03:06:21;;;;;;;0.00;0.00;;;15.30;99.90;;;;;;5006478;28;20037;-58
2023/08/09 03:08:46;;;;;;;0.00;0.00;;;15.10;99.90;;;;;;5008350;28;20052;-60
2023/08/09 03:11:13;;;;;;;0.00;0.00;;;15.30;99.90;;;;;;5008771;28;20034;-60
2023/08/09 03:13:39;;;;;;;0.00;0.00;;;15.30;99.90;;;;;;5005955;28;20678;-59
2023/08/09 03:16:05;;;;;;;0.00;0.00;;;15.40;99.90;;;;;;5008374;28;20034;-59
2023/08/09 03:18:31;;;;;;;0.00;0.00;;;15.30;99.90;;;;;;5006201;28;20050;-60
2023/08/09 03:20:56;;;;;;;0.00;0.00;;;15.20;99.90;;;;;;5001407;28;20782;-59
2023/08/09 03:23:22;;;;;;;0.00;0.00;;;15.20;99.90;;;;;;5020150;28;20054;-59
2023/08/09 03:25:47;;;;;;;0.00;0.00;;;15.20;99.90;;;;;;5006083;28;20118;-60
2023/08/09 03:28:13;;;;;;;0.00;0.00;;;15.10;99.90;;;;;;5003456;28;20057;-60
2023/08/09 03:30:39;;;;;;;0.00;0.00;;;15.00;99.90;;;;;;5005155;28;20129;-58
2023/08/09 03:33:04;;;;;;;0.00;0.00;;;15.00;99.90;;;;;;5020931;28;20037;-58
2023/08/09 03:35:30;;;;;;;0.00;0.00;;;15.00;99.90;;;;;;5025141;28;20028;-58
2023/08/09 03:37:56;;;;;;;0.00;0.00;;;15.00;99.90;;;;;;5028714;28;20044;-58
2023/08/09 03:40:22;;;;;;;0.00;0.00;;;14.90;99.90;;;;;;5023031;28;20120;-58
2023/08/09 03:42:47;;;;;;;0.00;0.00;;;14.70;99.90;;;;;;5023801;28;20033;-58
2023/08/09 03:45:13;;;;;;;0.00;0.00;;;14.90;99.90;;;;;;5026579;28;20037;-58
2023/08/09 03:47:38;;;;;;;0.00;0.00;;;14.90;99.90;;;;;;5024711;28;20038;-58
2023/08/09 03:50:07;;;;;;;0.00;0.00;;;14.90;99.90;;;;;;5024555;28;20044;-59
2023/08/09 03:52:33;;;;;;;0.00;0.00;;;14.90;99.90;;;;;;5025114;28;20061;-58
2023/08/09 03:54:59;;;;;;;0.00;0.00;;;14.90;99.90;;;;;;5024863;28;20056;-58
2023/08/09 03:57:27;;;;;;;0.00;0.00;;;15.00;99.90;;;;;;5022323;28;20029;-58
2023/08/09 03:59:54;;;;;;;0.00;0.00;;;15.00;99.90;;;;;;5028598;28;20750;-58
2023/08/09 04:02:19;;;;;;;0.00;0.00;;;14.60;99.90;;;;;;5023522;28;20033;-58
2023/08/09 04:04:45;;;;;;;0.00;0.00;;;14.60;99.90;;;;;;5005052;28;20036;-59
2023/08/09 04:07:11;;;;;;;0.00;0.00;;;14.70;99.90;;;;;;5003711;28;20046;-58
2023/08/09 04:09:37;;;;;;;0.00;0.00;;;14.80;99.90;;;;;;5003926;28;20050;-58
2023/08/09 04:12:03;;;;;;;0.00;0.00;;;14.80;99.90;;;;;;5006602;28;20125;-58
2023/08/09 04:14:29;;;;;;;0.00;0.00;;;14.80;99.90;;;;;;5020554;28;20033;-58
2023/08/09 04:16:56;;;;;;;0.00;0.00;;;14.70;99.90;;;;;;5003597;28;20494;-58
2023/08/09 04:19:24;;;;;;;0.00;0.00;;;14.60;99.90;;;;;;5020953;28;20049;-59
2023/08/09 04:21:51;;;;;;;0.00;0.00;;;14.60;99.90;;;;;;5012824;28;20042;-58
2023/08/09 04:24:17;;;;;;;0.00;0.00;;;14.70;99.90;;;;;;5005348;28;20448;-58
2023/08/09 04:26:43;;;;;;;0.00;0.00;;;14.70;99.90;;;;;;5013433;28;20034;-58
2023/08/09 04:29:09;;;;;;;0.00;0.00;;;14.60;99.90;;;;;;4995641;28;20038;-58
2023/08/09 04:31:34;;;;;;;0.00;0.00;;;14.60;99.90;;;;;;5006985;28;20033;-58
2023/08/09 04:34:00;;;;;;;0.00;0.00;;;14.60;99.90;;;;;;5008410;28;20030;-58
2023/08/09 04:36:26;;;;;;;0.00;0.00;;;14.50;99.90;;;;;;5007753;28;20105;-59
2023/08/09 04:38:52;;;;;;;0.00;0.00;;;14.60;99.90;;;;;;5003021;28;20088;-59
2023/08/09 04:41:18;;;;;;;0.00;0.00;;;14.60;99.90;;;;;;5000579;28;20030;-60
2023/08/09 04:43:44;;;;;;;0.00;0.00;;;14.50;99.90;;;;;;5003498;28;20037;-59
2023/08/09 04:46:11;;;;;;;0.00;0.00;;;14.50;99.90;;;;;;5006535;28;20069;-58
2023/08/09 04:48:39;;;;;;;0.00;0.00;;;14.50;99.90;;;;;;5007961;28;20490;-59
2023/08/09 04:51:06;;;;;;;0.00;0.00;;;14.60;99.90;;;;;;5004110;28;20061;-60
2023/08/09 04:53:31;;;;;;;0.00;0.00;;;14.50;99.90;;;;;;5007462;28;20091;-60
2023/08/09 04:55:57;;;;;;;0.00;0.00;;;14.60;99.90;;;;;;5018759;28;21961;-60
2023/08/09 04:58:22;;;;;;;0.00;0.00;;;14.60;99.90;;;;;;4998555;28;20054;-60
2023/08/09 05:00:48;;;;;;;0.00;0.00;;;14.60;99.90;;;;;;5012587;28;20025;-60
2023/08/09 05:03:16;;;;;;;0.00;0.00;;;14.60;99.90;;;;;;5030530;28;20041;-60
2023/08/09 05:05:44;;;;;;;0.00;0.00;;;14.60;99.90;;;;;;5020271;28;20072;-62
2023/08/09 05:08:09;;;;;;;0.00;0.00;;;14.60;99.90;;;;;;5001680;28;20523;-58
2023/08/09 05:10:35;;;;;;;0.00;0.00;;;14.60;99.90;;;;;;5011174;28;20034;-60
2023/08/09 05:13:01;;;;;;;0.00;0.00;;;14.60;99.90;;;;;;5007016;28;20402;-60
2023/08/09 05:15:27;;;;;;;0.00;0.00;;;14.70;99.90;;;;;;5025962;28;20030;-59
2023/08/09 05:17:52;;;;;;;0.00;0.00;;;14.70;99.90;;;;;;5005513;28;20030;-59
2023/08/09 05:20:18;;;;;;;0.00;0.00;;;14.60;99.90;;;;;;5006920;28;20494;-59
2023/08/09 05:22:44;;;;;;;0.00;0.00;;;14.70;99.90;;;;;;5004587;28;20072;-60
2023/08/09 05:25:11;;;;;;;0.00;0.00;;;15.00;99.90;;;;;;5005356;28;20490;-59
2023/08/09 05:27:36;;;;;;;0.00;0.00;;;15.00;99.90;;;;;;5006510;28;20299;-59
2023/08/09 05:30:04;;;;;;;0.00;0.00;;;14.90;99.90;;;;;;5003120;28;20451;-60
2023/08/09 05:32:30;;;;;;;0.00;0.00;;;14.80;99.90;;;;;;5005926;28;20484;-59
2023/08/09 05:34:55;;;;;;;0.00;0.00;;;14.80;99.90;;;;;;5006905;28;20030;-60
2023/08/09 05:37:21;;;;;;;0.00;0.00;;;14.90;99.90;;;;;;5007078;28;20041;-59
2023/08/09 05:39:46;;;;;;;0.00;0.00;;;14.70;99.90;;;;;;5006394;28;20076;-59
2023/08/09 05:42:12;;;;;;;0.00;0.00;;;14.50;99.90;;;;;;5014818;28;20772;-59
2023/08/09 05:44:38;;;;;;;0.00;0.00;;;14.80;99.90;;;;;;5021432;28;20088;-59
2023/08/09 05:47:04;;;;;;;0.00;0.00;;;14.50;99.90;;;;;;5022388;28;20041;-59
2023/08/09 05:49:29;;;;;;;0.00;0.00;;;14.60;99.90;;;;;;5010155;28;20037;-58
2023/08/09 05:51:55;;;;;;;0.00;0.00;;;14.70;99.90;;;;;;5010196;28;20026;-60
2023/08/09 05:54:21;;;;;;;0.00;0.00;;;14.60;99.90;;;;;;5011475;28;20034;-59
2023/08/09 05:56:47;;;;;;;0.00;0.00;;;14.60;99.90;;;;;;5002527;28;20084;-59
2023/08/09 05:59:12;;;;;;;0.00;0.00;;;14.50;99.90;;;;;;5003970;28;20042;-59
2023/08/09 06:01:38;;;;;;;0.00;0.00;;;14.50;99.90;;;;;;5020082;28;20041;-59
2023/08/09 06:04:04;;;;;;;0.00;0.00;;;14.50;99.90;;;;;;4999436;28;20038;-60
2023/08/09 06:06:29;;;;;;;0.00;0.00;;;14.60;99.90;;;;;;4997524;28;20436;-59
2023/08/09 06:08:55;;;;;;;0.00;0.00;;;14.80;99.90;;;;;;4997626;28;20038;-59
2023/08/09 06:11:21;;;;;;;0.00;0.00;;;15.00;99.90;;;;;;5010401;28;20120;-60
2023/08/09 06:13:46;;;;;;;0.00;0.00;;;15.00;99.90;;;;;;5023709;28;20041;-60
2023/08/09 06:16:12;;;;;;;0.00;0.00;;;14.90;99.90;;;;;;5034303;28;20135;-59
2023/08/09 06:18:38;;;;;;;0.00;0.00;;;14.70;99.90;;;;;;5018034;28;20041;-59
2023/08/09 06:21:04;;;;;;;0.00;0.00;;;14.90;99.90;;;;;;5003492;28;20033;-59
2023/08/09 06:23:30;;;;;;;0.00;0.00;;;14.80;99.90;;;;;;5018497;28;20045;-57
2023/08/09 06:25:56;;;;;;;0.00;0.00;;;15.00;99.90;;;;;;5023082;28;20041;-58
2023/08/09 06:28:21;;;;;;;0.00;0.00;;;15.00;99.90;;;;;;5022405;28;20049;-58
2023/08/09 06:30:47;;;;;;;0.00;0.00;;;15.00;99.90;;;;;;5024140;28;20037;-58
2023/08/09 06:33:12;;;;;;;0.00;0.00;;;15.30;99.90;;;;;;5021502;28;20099;-58
2023/08/09 06:35:38;;;;;;;0.00;0.00;;;15.40;99.90;;;;;;5016682;28;20706;-58
2023/08/09 06:38:04;;;;;;;0.00;0.00;;;15.40;99.90;;;;;;5003872;28;20041;-58
2023/08/09 06:40:30;;;;;;;0.00;0.00;;;15.40;99.90;;;;;;4995708;28;20424;-60
2023/08/09 06:42:56;;;;;;;0.00;0.00;;;15.20;99.90;;;;;;4997586;28;20034;-58
2023/08/09 06:45:21;;;;;;;0.00;0.00;;;15.30;99.90;;;;;;5002100;28;20042;-59
2023/08/09 06:47:47;;;;;;;0.00;0.00;;;15.30;99.90;;;;;;5018632;28;20117;-58
2023/08/09 06:50:13;;;;;;;0.00;0.00;;;15.20;99.90;;;;;;5005187;28;20041;-57
2023/08/09 06:52:39;;;;;;;0.00;0.00;;;15.10;99.90;;;;;;5003916;28;20037;-58
2023/08/09 06:55:07;;;;;;;0.00;0.00;;;15.00;99.90;;;;;;5001074;28;20046;-58
2023/08/09 06:57:32;;;;;;;0.00;0.00;;;15.10;99.90;;;;;;5001296;28;20038;-58
2023/08/09 06:59:59;;;;;;;0.00;0.00;;;14.90;99.90;;;;;;4997165;28;20052;-59
2023/08/09 07:02:26;;;;;;;0.00;0.00;;;15.00;99.90;;;;;;4997303;28;20050;-59
2023/08/09 07:04:53;;;;;;;0.00;0.00;;;15.20;99.90;;;;;;5013702;28;20482;-58
2023/08/09 07:07:20;;;;;;;0.00;0.00;;;15.30;99.90;;;;;;4997045;28;20034;-59
2023/08/09 07:09:46;;;;;;;0.00;0.00;;;15.40;99.90;;;;;;5003714;28;20104;-59
2023/08/09 07:12:11;;;;;;;0.00;0.00;;;15.30;99.90;;;;;;5000876;28;21635;-59
2023/08/09 07:14:37;;;;;;;0.00;0.00;;;15.50;99.90;;;;;;5004935;28;20042;-59
2023/08/09 07:17:03;;;;;;;0.00;0.00;;;15.50;99.90;;;;;;5013088;28;20410;-59
2023/08/09 07:19:29;;;;;;;0.00;0.00;;;15.60;99.90;;;;;;5009024;28;20081;-60
2023/08/09 07:21:54;;;;;;;0.00;0.00;;;15.70;99.90;;;;;;5005691;28;20454;-59
2023/08/09 07:24:20;;;;;;;0.00;0.00;;;15.80;99.90;;;;;;5010946;28;20041;-59
2023/08/09 07:26:46;;;;;;;0.00;0.00;;;15.90;99.90;;;;;;5014683;28;20128;-59
2023/08/09 07:29:12;;;;;;;0.00;0.00;;;15.80;99.90;;;;;;5005566;28;20502;-59
2023/08/09 07:31:38;;;;;;;0.00;0.00;;;15.90;99.90;;;;;;5005358;28;20041;-57
2023/08/09 07:34:03;;;;;;;0.00;0.00;;;16.10;99.90;;;;;;5004230;28;20038;-59
2023/08/09 07:36:29;;;;;;;0.00;0.00;;;16.20;99.90;;;;;;5005944;28;20038;-58
2023/08/09 07:38:55;;;;;;;0.00;0.00;;;16.30;99.90;;;;;;5014830;28;20683;-58
2023/08/09 07:41:21;;;;;;;0.00;0.00;;;16.30;99.90;;;;;;5003677;28;20040;-58
2023/08/09 07:43:48;;;;;;;0.00;0.00;;;16.10;99.90;;;;;;5002984;28;20109;-58
2023/08/09 07:46:13;;;;;;;0.00;0.00;;;16.00;99.90;;;;;;5005746;28;20045;-58
2023/08/09 07:48:39;;;;;;;0.00;0.00;;;16.00;99.90;;;;;;5005555;28;20437;-58
2023/08/09 07:51:06;;;;;;;0.00;0.00;;;16.10;99.90;;;;;;5013287;28;20235;-58
2023/08/09 07:53:31;;;;;;;0.00;0.00;;;16.20;99.90;;;;;;5001774;28;20045;-59
2023/08/09 07:55:57;;;;;;;0.00;0.00;;;16.40;99.90;;;;;;5008910;28;20037;-58
2023/08/09 07:58:23;;;;;;;0.00;0.00;;;16.50;99.90;;;;;;5002871;28;20046;-58
2023/08/09 08:00:49;;;;;;;0.00;0.00;;;16.00;99.90;;;;;;5005508;28;20147;-58
2023/08/09 08:03:15;;;;;;;0.00;0.00;;;15.90;99.90;;;;;;5010670;28;20540;-58
2023/08/09 08:05:40;;;;;;;0.00;0.00;;;16.00;99.90;;;;;;5007762;28;20490;-59
2023/08/09 08:08:06;;;;;;;0.00;0.00;;;16.20;99.90;;;;;;5013972;28;20392;-58
2023/08/09 08:10:32;;;;;;;0.00;0.00;;;16.50;99.90;;;;;;5008336;28;20037;-60
2023/08/09 08:12:58;;;;;;;0.00;0.00;;;16.50;99.90;;;;;;5004068;28;20521;-59
2023/08/09 08:15:24;;;;;;;0.00;0.00;;;16.40;99.90;;;;;;5002702;28;20038;-57
2023/08/09 08:17:51;;;;;;;0.00;0.00;;;16.50;99.90;;;;;;5000282;28;20030;-58
2023/08/09 08:20:20;;;;;;;0.00;0.00;;;16.80;99.90;;;;;;4997541;28;20038;-60
2023/08/09 08:22:48;;;;;;;0.00;0.00;;;16.90;99.90;;;;;;5000439;28;20045;-60
2023/08/09 08:25:15;;;;;;;0.00;0.00;;;16.90;99.90;;;;;;4999579;28;20041;-61
2023/08/09 08:27:45;;;;;;;0.00;0.00;;;17.00;99.90;;;;;;5004161;28;20034;-61
2023/08/09 08:30:16;;;;;;;0.00;0.00;;;16.90;99.90;;;;;;5009261;28;20037;-60
2023/08/09 08:32:43;;;;;;;0.00;0.00;;;16.80;99.90;;;;;;5001250;28;20069;-60
2023/08/09 08:35:13;;;;;;;0.00;0.00;;;16.90;99.90;;;;;;5005803;28;20038;-60
2023/08/09 08:37:40;;;;;;;0.00;0.00;;;16.80;99.90;;;;;;5023926;28;20042;-60
2023/08/09 08:40:17;;;;;;;0.00;0.00;;;16.90;99.90;;;;;;5007029;28;20053;-60
2023/08/09 08:42:46;;;;;;;0.00;0.00;;;17.00;99.90;;;;;;5002479;28;20125;-60
2023/08/09 08:45:14;;;;;;;0.00;0.00;;;17.30;99.90;;;;;;5001929;28;20133;-60
2023/08/09 08:47:41;;;;;;;0.00;0.00;;;17.40;99.90;;;;;;5007778;28;20437;-60
2023/08/09 08:50:08;;;;;;;0.00;0.00;;;17.70;99.90;;;;;;5006195;28;20486;-61
2023/08/09 08:52:36;;;;;;;0.00;0.00;;;18.00;99.90;;;;;;5001872;28;20034;-61
2023/08/09 08:55:06;;;;;;;0.00;0.00;;;18.20;99.90;;;;;;5003427;28;20042;-60
2023/08/09 08:57:32;;;;;;;0.00;0.00;;;18.30;99.90;;;;;;5007543;28;20121;-61
2023/08/09 09:00:00;;;;;;;0.00;0.00;;;18.40;99.90;;;;;;4999842;28;20574;-61
2023/08/09 09:02:25;;;;;;;0.00;0.00;;;18.40;99.90;;;;;;4997264;28;20041;-61
2023/08/09 09:04:52;;;;;;;0.00;0.00;;;18.60;99.90;;;;;;5005630;28;20665;-60
2023/08/09 09:07:18;;;;;;;0.00;0.00;;;18.50;99.90;;;;;;5000923;28;20507;-59
2023/08/09 09:09:56;;;;;;;0.00;0.00;;;18.70;99.90;;;;;;5003371;28;20037;-61
2023/08/09 09:12:21;;;;;;;0.00;0.00;;;18.60;99.90;;;;;;5003561;28;21092;-61
2023/08/09 09:14:51;;;;;;;0.00;0.00;;;18.70;99.90;;;;;;5007255;28;20116;-60
2023/08/09 09:17:19;;;;;;;0.00;0.00;;;18.70;99.90;;;;;;5022426;28;20128;-60
2023/08/09 09:19:45;;;;;;;0.00;0.00;;;18.80;99.90;;;;;;5009520;28;20042;-61
2023/08/09 09:22:28;;;;;;;0.00;0.00;;;18.80;99.90;;;;;;5000317;28;20038;-61
2023/08/09 09:24:58;;;;;;;0.00;0.00;;;18.70;99.90;;;;;;5012635;28;20034;-61
2023/08/09 09:27:31;;;;;;;0.00;0.00;;;18.60;99.90;;;;;;4992594;28;20124;-61
2023/08/09 09:30:12;;;;;;;0.00;0.00;;;18.60;99.90;;;;;;5021387;28;20037;-60
2023/08/09 09:32:40;;;;;;;0.00;0.00;;;18.60;99.90;;;;;;5015063;28;20030;-61
2023/08/09 09:35:08;;;;;;;0.00;0.00;;;18.70;99.90;;;;;;4997564;28;20033;-61
2023/08/09 09:37:35;;;;;;;0.00;0.00;;;18.80;99.90;;;;;;4999441;28;20575;-60
2023/08/09 09:40:01;;;;;;;0.00;0.00;;;18.90;99.90;;;;;;4999790;28;20116;-61
2023/08/09 09:42:34;;;;;;;0.00;0.00;;;19.00;99.90;;;;;;5010749;28;20620;-60
2023/08/09 09:45:07;;;;;;;0.00;0.00;;;18.90;99.90;;;;;;5007220;28;20034;-61
2023/08/09 09:47:34;;;;;;;0.00;0.00;;;18.80;99.90;;;;;;5014287;28;20030;-60
2023/08/09 09:50:01;;;;;;;0.00;0.00;;;18.90;99.90;;;;;;5019644;28;20034;-61
2023/08/09 09:52:28;;;;;;;0.00;0.00;;;18.70;99.90;;;;;;5014660;28;20398;-61
2023/08/09 09:54:55;;;;;;;0.00;0.00;;;18.90;99.90;;;;;;5002648;28;20080;-61
2023/08/09 09:57:21;;;;;;;0.00;0.00;;;19.00;99.90;;;;;;5006035;28;20045;-61
2023/08/09 09:59:46;;;;;;;0.00;0.00;;;19.20;99.90;;;;;;5004012;28;20045;-61
2023/08/09 10:02:13;;;;;;;0.00;0.00;;;18.90;99.90;;;;;;5008527;28;20037;-61
2023/08/09 10:04:40;;;;;;;0.00;0.00;;;18.80;99.90;;;;;;5010775;28;20045;-62
2023/08/09 10:07:07;;;;;;;0.00;0.00;;;19.10;99.90;;;;;;5012868;28;20065;-61
2023/08/09 10:09:34;;;;;;;0.00;0.00;;;19.20;99.90;;;;;;5008009;28;20172;-61
2023/08/09 10:12:03;;;;;;;0.00;0.00;;;19.50;99.90;;;;;;5005971;28;20038;-60
2023/08/09 10:14:30;;;;;;;0.00;0.00;;;19.60;99.90;;;;;;5020148;28;20124;-60
2023/08/09 10:16:57;;;;;;;0.00;0.00;;;19.70;99.90;;;;;;5021409;28;20180;-60
2023/08/09 10:19:24;;;;;;;0.00;0.00;;;19.90;99.90;;;;;;5013356;28;20049;-60
2023/08/09 10:21:53;;;;;;;0.00;0.00;;;20.00;99.90;;;;;;5002668;28;20037;-61
2023/08/09 10:24:18;;;;;;;0.00;0.00;;;19.80;99.90;;;;;;5006755;28;20038;-60
2023/08/09 10:26:49;;;;;;;0.00;0.00;;;19.80;99.90;;;;;;5008157;28;20080;-61
2023/08/09 10:29:20;;;;;;;0.00;0.00;;;19.50;99.90;;;;;;5010952;28;20030;-61
2023/08/09 10:32:02;;;;;;;0.00;0.00;;;19.80;99.90;;;;;;5008220;28;20049;-60
2023/08/09 10:34:42;;;;;;;0.00;0.00;;;19.90;99.90;;;;;;5025386;28;20124;-60
2023/08/09 10:37:10;;;;;;;0.00;0.00;;;20.10;99.90;;;;;;5019476;28;20951;-60
2023/08/09 10:39:37;;;;;;;0.00;0.00;;;20.20;99.90;;;;;;5022543;28;20398;-60
2023/08/09 10:42:10;;;;;;;0.00;0.00;;;20.30;99.90;;;;;;5020348;28;20633;-60
2023/08/09 10:44:52;;;;;;;0.00;0.00;;;20.40;99.90;;;;;;5011392;28;20049;-60
2023/08/09 10:47:27;;;;;;;0.00;0.00;;;19.60;99.90;;;;;;5013758;28;20401;-61
2023/08/09 10:49:52;;;;;;;0.00;0.00;;;20.00;99.90;;;;;;5009723;28;20080;-61
2023/08/09 10:52:29;;;;;;;0.00;0.00;;;20.10;99.90;;;;;;5002427;28;20041;-61
2023/08/09 10:55:25;;;;;;;0.00;0.00;;;20.00;99.90;;;;;;4999210;28;20081;-61
2023/08/09 10:57:53;;;;;;;0.00;0.00;;;20.00;99.90;;;;;;5011320;28;20389;-60
2023/08/09 11:00:20;;;;;;;0.00;0.00;;;20.20;99.90;;;;;;4999817;28;20149;-61
2023/08/09 11:02:47;;;;;;;0.00;0.00;;;20.20;99.90;;;;;;5002438;28;20037;-60
2023/08/09 11:05:13;;;;;;;0.00;0.00;;;20.20;99.90;;;;;;5008699;28;20385;-60
2023/08/09 11:07:56;;;;;;;0.00;0.00;;;20.40;99.90;;;;;;5007516;28;20030;-61
2023/08/09 11:10:33;;;;;;;0.00;0.00;;;20.50;99.90;;;;;;5005760;28;20037;-60
2023/08/09 11:13:06;;;;;;;0.00;0.00;;;20.50;99.90;;;;;;5008010;28;20036;-61
2023/08/09 11:15:32;;;;;;;0.00;0.00;;;20.50;99.90;;;;;;5021478;28;20034;-61
2023/08/09 11:17:58;;;;;;;0.00;0.00;;;20.60;99.90;;;;;;5022843;28;20101;-60
2023/08/09 11:20:23;;;;;;;0.00;0.00;;;20.70;99.90;;;;;;5017419;28;20069;-60
2023/08/09 11:22:57;;;;;;;0.00;0.00;;;20.70;99.90;;;;;;5014405;28;20204;-60
2023/08/09 11:25:23;;;;;;;;;;;20.70;99.90;;;;;;5012065;28;20038;-61
2023/08/09 11:27:57;;;;;;;0.00;0.00;;;20.70;99.90;;;;;;5009385;28;20413;-61
2023/08/09 11:30:24;;;;;;;0.00;0.00;;;20.70;99.90;;;;;;5006807;28;20040;-60
2023/08/09 11:33:04;;;;;;;0.00;0.00;;;20.80;99.90;;;;;;5004398;28;20057;-61
2023/08/09 11:35:44;;;;;;;0.00;0.00;;;20.60;99.90;;;;;;5021090;28;20554;-60
2023/08/09 11:38:13;;;;;;;0.00;0.00;;;20.70;99.90;;;;;;5020742;28;20039;-61
2023/08/09 11:40:48;;;;;;;0.00;0.00;;;20.70;99.90;;;;;;5012136;28;20500;-60
2023/08/09 11:43:16;;;;;;;0.00;0.00;;;20.80;99.90;;;;;;4997766;28;20521;-60
2023/08/09 11:45:50;;;;;;;0.00;0.00;;;20.90;99.90;;;;;;5003235;28;20453;-60
2023/08/09 11:48:27;;;;;;;0.00;0.00;;;21.00;99.90;;;;;;5011807;28;20045;-61
2023/08/09 11:51:09;;;;;;;0.00;0.00;;;21.00;99.90;;;;;;4995436;28;20128;-61
2023/08/09 11:53:37;;;;;;;0.00;0.00;;;21.20;99.90;;;;;;4995620;28;20030;-61
2023/08/09 11:56:05;;;;;;;0.00;0.00;;;21.20;99.90;;;;;;5001848;28;20069;-60
2023/08/09 11:58:38;;;;;;;0.00;0.00;;;20.90;99.90;;;;;;5000563;28;20045;-61
2023/08/09 12:01:21;;;;;;;0.00;0.00;;;20.70;99.90;;;;;;5005836;28;20096;-61
2023/08/09 12:03:49;;;;;;;0.00;0.00;;;20.90;99.90;;;;;;5010113;28;20038;-60
2023/08/09 12:06:16;;;;;;;0.00;0.00;;;21.00;99.90;;;;;;5006489;28;20038;-60
2023/08/09 12:08:42;;;;;;;0.00;0.00;;;21.20;99.90;;;;;;5001520;28;20038;-60
2023/08/09 12:11:08;;;;;;;0.00;0.00;;;21.10;99.90;;;;;;5002503;28;20048;-61
2023/08/09 12:13:33;;;;;;;0.00;0.00;;;21.30;99.90;;;;;;5000178;28;20128;-61
2023/08/09 12:16:06;;;;;;;0.00;0.00;;;21.20;99.90;;;;;;5006802;28;20041;-61
2023/08/09 12:18:35;;;;;;;0.00;0.00;;;21.20;99.90;;;;;;5011900;28;20041;-61
2023/08/09 12:21:02;;;;;;;0.00;0.00;;;21.00;99.90;;;;;;5009377;28;20502;-61
2023/08/09 12:23:28;;;;;;;0.00;0.00;;;21.20;99.90;;;;;;5004137;28;20068;-61
2023/08/09 12:25:53;;;;;;;0.00;0.00;;;21.20;99.90;;;;;;5004355;28;20061;-61
2023/08/09 12:28:19;;;;;;;0.00;0.00;;;21.30;99.90;;;;;;5002594;28;20052;-61
2023/08/09 12:30:44;;;;;;;0.00;0.00;;;21.40;99.90;;;;;;4995558;28;20065;-61
2023/08/09 12:33:11;;;;;;;0.00;0.00;;;21.30;99.90;;;;;;4997703;28;20452;-61
2023/08/09 12:35:36;;;;;;;0.00;0.00;;;21.20;99.90;;;;;;5019370;28;20025;-61
2023/08/09 12:38:02;;;;;;;0.00;0.00;;;21.40;99.90;;;;;;5017769;28;20049;-61
2023/08/09 12:40:28;;;;;;;0.00;0.00;;;21.50;99.90;;;;;;5021285;28;20033;-61
2023/08/09 12:42:53;;;;;;;0.00;0.00;;;21.80;99.90;;;;;;5017547;28;20025;-61
2023/08/09 12:45:19;;;;;;;0.00;0.00;;;22.00;99.90;;;;;;5015022;28;20034;-61
2023/08/09 12:47:45;;;;;;;0.00;0.00;;;21.90;99.90;;;;;;5016389;28;20441;-61
2023/08/09 12:50:11;;;;;;;0.00;0.00;;;21.90;99.90;;;;;;5018272;28;20030;-61